createdAt,value
2018-01-05T00:02:16.210Z,98.50
2018-01-05T00:04:43.759Z,98.20
2018-01-05T00:07:11.286Z,97.80
2018-01-05T00:09:39.792Z,98.10
2018-01-05T00:12:07.322Z,98.20
2018-01-05T00:14:34.853Z,98.10
2018-01-05T00:17:02.425Z,98.40
2018-01-05T00:19:30.932Z,98.50
2018-01-05T00:21:59.255Z,97.90
2018-01-05T00:24:26.783Z,97.90
2018-01-05T00:26:54.347Z,98.20
2018-01-05T00:29:21.875Z,97.60
2018-01-05T00:31:49.400Z,97.70
2018-01-05T00:34:17.013Z,97.60
2018-01-05T00:36:45.625Z,98.00
2018-01-05T00:39:13.171Z,97.70
2018-01-05T00:41:40.706Z,97.50
2018-01-05T00:44:08.252Z,97.80
2018-01-05T00:46:36.748Z,97.30
2018-01-05T00:49:04.272Z,98.40
2018-01-05T00:51:31.824Z,97.20
2018-01-05T00:53:59.346Z,97.50
2018-01-05T00:56:26.891Z,98.10
2018-01-05T00:58:54.433Z,97.60
2018-01-05T01:01:21.987Z,97.60
2018-01-05T01:03:49.507Z,97.10
2018-01-05T01:06:18.017Z,97.40
2018-01-05T01:08:45.545Z,97.70
2018-01-05T01:11:13.071Z,98.30
2018-01-05T01:13:40.640Z,98.20
2018-01-05T01:16:08.164Z,97.90
2018-01-05T01:18:35.725Z,98.50
2018-01-05T01:21:03.242Z,99.40
2018-01-05T01:23:30.769Z,98.70
2018-01-05T01:25:58.327Z,98.20
2018-01-05T01:28:25.850Z,96.90
2018-01-05T01:30:53.399Z,97.40
2018-01-05T01:33:21.679Z,97.50
2018-01-05T01:35:49.243Z,97.60
2018-01-05T01:38:16.758Z,97.60
2018-01-05T01:40:44.340Z,98.10
2018-01-05T01:43:11.866Z,98.00
2018-01-05T01:45:39.395Z,97.40
2018-01-05T01:48:06.939Z,97.50
2018-01-05T01:50:34.478Z,97.30
2018-01-05T01:53:02.029Z,96.80
2018-01-05T01:55:29.547Z,97.40
2018-01-05T01:57:57.106Z,97.40
2018-01-05T02:00:24.627Z,97.10
2018-01-05T02:02:52.153Z,96.50
2018-01-05T02:05:21.675Z,96.30
2018-01-05T02:07:49.199Z,96.50
2018-01-05T02:10:16.763Z,95.80
2018-01-05T02:12:44.300Z,96.00
2018-01-05T02:15:11.826Z,94.40
2018-01-05T02:17:39.393Z,94.00
2018-01-05T02:20:07.888Z,91.70
2018-01-05T02:22:35.439Z,91.40
2018-01-05T02:25:03.733Z,87.20
2018-01-05T02:27:31.296Z,87.10
2018-01-05T02:29:58.835Z,85.80
2018-01-05T02:32:26.363Z,84.30
2018-01-05T02:34:53.918Z,83.00
2018-01-05T02:37:21.448Z,82.00
2018-01-05T02:39:50.958Z,82.20
2018-01-05T02:42:18.490Z,82.90
2018-01-05T02:44:46.052Z,85.40
2018-01-05T02:47:13.591Z,84.70
2018-01-05T02:49:41.111Z,83.60
2018-01-05T02:52:08.658Z,84.10
2018-01-05T02:54:36.183Z,83.00
2018-01-05T02:57:03.770Z,83.70
2018-01-05T02:59:31.295Z,84.20
2018-01-05T03:01:59.699Z,83.50
2018-01-05T03:04:27.259Z,83.60
2018-01-05T03:06:55.804Z,83.90
2018-01-05T03:09:24.128Z,84.20
2018-01-05T03:11:51.653Z,84.30
2018-01-05T03:14:20.003Z,84.60
2018-01-05T03:16:47.582Z,84.80
2018-01-05T03:19:15.278Z,83.70
2018-01-05T03:21:42.859Z,84.50
2018-01-05T03:24:10.390Z,83.90
2018-01-05T03:26:37.935Z,85.70
2018-01-05T03:29:05.462Z,85.50
2018-01-05T03:31:33.999Z,84.20
2018-01-05T03:34:01.552Z,83.80
2018-01-05T03:36:29.116Z,84.30
2018-01-05T03:38:56.685Z,82.30
2018-01-05T03:41:24.243Z,84.20
2018-01-05T03:43:51.812Z,82.00
2018-01-05T03:46:19.350Z,84.30
2018-01-05T03:48:46.916Z,83.20
2018-01-05T03:51:14.454Z,82.50
2018-01-05T03:53:41.974Z,84.30
2018-01-05T03:56:11.220Z,82.00
2018-01-05T03:58:38.746Z,82.00
2018-01-05T04:01:07.071Z,81.40
2018-01-05T04:03:34.593Z,81.40
2018-01-05T04:06:03.152Z,80.30
2018-01-05T04:08:30.680Z,79.20
2018-01-05T04:10:58.234Z,81.40
2018-01-05T04:13:25.758Z,79.80
2018-01-05T04:15:53.295Z,79.30
2018-01-05T04:18:22.792Z,78.60
2018-01-05T04:20:50.314Z,76.50
2018-01-05T04:23:17.874Z,76.70
2018-01-05T04:25:45.407Z,76.80
2018-01-05T04:28:12.963Z,76.90
2018-01-05T04:30:41.439Z,76.00
2018-01-05T04:33:08.982Z,75.50
2018-01-05T04:35:37.455Z,74.60
2018-01-05T04:38:05.949Z,72.80
2018-01-05T04:40:33.503Z,72.20
2018-01-05T04:43:01.791Z,69.10
2018-01-05T04:45:30.290Z,69.10
2018-01-05T04:47:57.834Z,68.90
2018-01-05T04:50:26.363Z,68.10
2018-01-05T04:52:54.877Z,66.80
2018-01-05T04:55:22.438Z,66.70
2018-01-05T04:57:50.724Z,64.20
2018-01-05T05:00:19.014Z,63.90
2018-01-05T05:02:46.575Z,63.60
2018-01-05T05:05:14.103Z,61.10
2018-01-05T05:07:41.652Z,60.20
2018-01-05T05:10:09.187Z,58.60
2018-01-05T05:12:36.742Z,56.50
2018-01-05T05:15:04.377Z,57.10
2018-01-05T05:17:31.928Z,56.70
2018-01-05T05:19:59.457Z,57.30
2018-01-05T05:22:27.015Z,56.60
2018-01-05T05:24:55.307Z,57.00
2018-01-05T05:27:23.615Z,57.50
2018-01-05T05:29:51.292Z,57.60
2018-01-05T05:32:19.635Z,58.30
2018-01-05T05:34:47.185Z,58.40
2018-01-05T05:37:14.711Z,58.00
2018-01-05T05:39:43.217Z,57.60
2018-01-05T05:42:10.752Z,56.50
2018-01-05T05:44:38.314Z,56.70
2018-01-05T05:47:05.846Z,56.80
2018-01-05T05:49:35.374Z,57.20
2018-01-05T05:52:02.910Z,56.60
2018-01-05T05:54:30.439Z,57.40
2018-01-05T05:56:58.007Z,56.50
2018-01-05T05:59:25.539Z,57.10
2018-01-05T06:01:53.102Z,57.50
2018-01-05T06:04:20.641Z,57.90
2018-01-05T06:06:49.947Z,58.50
2018-01-05T06:09:18.241Z,58.90
2018-01-05T06:11:45.811Z,58.90
2018-01-05T06:14:13.334Z,59.40
2018-01-05T06:16:40.894Z,59.10
2018-01-05T06:19:09.186Z,60.90
2018-01-05T06:21:36.731Z,60.90
2018-01-05T06:24:06.241Z,62.10
2018-01-05T06:26:33.779Z,63.90
2018-01-05T06:29:01.333Z,63.60
2018-01-05T06:31:28.872Z,64.40
2018-01-05T06:33:56.431Z,65.40
2018-01-05T06:36:23.963Z,66.20
2018-01-05T06:38:51.518Z,67.50
2018-01-05T06:41:19.043Z,68.20
2018-01-05T06:43:47.337Z,69.70
2018-01-05T06:46:14.896Z,69.70
2018-01-05T06:48:42.428Z,69.30
2018-01-05T06:51:11.910Z,69.10
2018-01-05T06:53:39.427Z,68.60
2018-01-05T06:56:07.003Z,69.30
2018-01-05T06:58:34.530Z,70.00
2018-01-05T07:01:02.847Z,67.80
2018-01-05T07:03:30.369Z,67.70
2018-01-05T07:05:57.932Z,67.10
2018-01-05T07:08:25.455Z,65.40
2018-01-05T07:10:52.990Z,65.10
2018-01-05T07:13:22.490Z,66.80
2018-01-05T07:15:50.060Z,65.40
2018-01-05T07:18:17.608Z,64.90
2018-01-05T07:20:45.140Z,66.10
2018-01-05T07:23:12.711Z,66.60
2018-01-05T07:25:40.231Z,66.40
2018-01-05T07:28:08.529Z,66.50
2018-01-05T07:30:36.081Z,66.50
2018-01-05T07:33:03.611Z,67.40
2018-01-05T07:35:31.177Z,65.60
2018-01-05T07:37:59.478Z,62.70
2018-01-05T07:40:27.036Z,62.70
2018-01-05T07:42:54.564Z,63.70
2018-01-05T07:45:24.019Z,63.00
2018-01-05T07:47:51.541Z,63.40
2018-01-05T07:50:19.834Z,60.60
2018-01-05T07:52:47.387Z,60.50
2018-01-05T07:55:14.919Z,61.50
2018-01-05T07:57:43.238Z,60.70
2018-01-05T08:00:10.791Z,60.60
2018-01-05T08:02:38.358Z,64.00
2018-01-05T08:05:06.267Z,62.80
2018-01-05T08:07:33.814Z,61.40
2018-01-05T08:10:01.335Z,61.90
2018-01-05T08:12:29.839Z,62.80
2018-01-05T08:14:57.369Z,61.90
2018-01-05T08:17:24.899Z,61.60
2018-01-05T08:19:53.220Z,60.80
2018-01-05T08:22:20.743Z,60.80
2018-01-05T08:24:51.031Z,59.80
2018-01-05T08:27:18.553Z,59.70
2018-01-05T08:29:46.102Z,58.40
2018-01-05T08:32:14.566Z,56.70
2018-01-05T08:34:42.888Z,57.30
2018-01-05T08:37:10.430Z,57.90
2018-01-05T08:39:37.950Z,57.10
2018-01-05T08:42:06.278Z,56.90
2018-01-05T08:44:33.811Z,56.50
2018-01-05T08:47:01.354Z,57.20
2018-01-05T08:49:29.840Z,56.80
2018-01-05T08:51:57.387Z,56.90
2018-01-05T08:54:25.684Z,57.40
2018-01-05T08:56:53.259Z,57.40
2018-01-05T08:59:20.786Z,56.80
2018-01-05T09:01:48.306Z,57.00
2018-01-05T09:04:15.855Z,55.50
2018-01-05T09:06:43.599Z,56.30
2018-01-05T09:09:12.091Z,55.50
2018-01-05T09:11:39.620Z,55.20
2018-01-05T09:14:07.179Z,54.40
2018-01-05T09:16:34.709Z,53.90
2018-01-05T09:19:02.263Z,52.10
2018-01-05T09:21:29.797Z,53.10
2018-01-05T09:23:59.323Z,52.80
2018-01-05T09:26:27.647Z,51.90
2018-01-05T09:28:55.217Z,51.90
2018-01-05T09:31:22.747Z,52.60
2018-01-05T09:33:51.059Z,50.90
2018-01-05T09:36:18.615Z,50.90
2018-01-05T09:38:46.140Z,51.40
2018-01-05T09:41:14.504Z,51.50
2018-01-05T09:43:42.818Z,51.30
2018-01-05T09:46:10.374Z,51.30
2018-01-05T09:48:37.895Z,51.60
2018-01-05T09:51:05.690Z,52.20
2018-01-05T09:53:33.217Z,50.00
2018-01-05T09:56:02.054Z,51.70
2018-01-05T09:58:29.611Z,51.90
2018-01-05T10:00:57.136Z,51.20
2018-01-05T10:03:24.700Z,49.60
2018-01-05T10:05:53.187Z,49.10
2018-01-05T10:08:21.503Z,49.60
2018-01-05T10:10:49.043Z,49.60
2018-01-05T10:13:16.603Z,49.40
2018-01-05T10:15:44.135Z,49.00
2018-01-05T10:18:11.686Z,48.50
2018-01-05T10:20:39.972Z,47.90
2018-01-05T10:23:08.291Z,48.40
2018-01-05T10:25:35.814Z,48.40
2018-01-05T10:28:03.364Z,48.30
2018-01-05T10:30:30.912Z,46.90
2018-01-05T10:32:58.451Z,47.10
2018-01-05T10:35:26.030Z,48.20
2018-01-05T10:37:53.579Z,46.90
2018-01-05T10:40:21.167Z,47.80
2018-01-05T10:42:48.696Z,48.00
2018-01-05T10:45:16.253Z,48.20
2018-01-05T10:47:44.619Z,48.50
2018-01-05T10:50:12.166Z,48.50
2018-01-05T10:52:39.701Z,48.10
2018-01-05T10:55:07.270Z,48.20
2018-01-05T10:57:34.870Z,49.10
2018-01-05T11:00:03.362Z,47.40
2018-01-05T11:02:30.907Z,46.40
2018-01-05T11:04:58.723Z,45.40
2018-01-05T11:07:26.290Z,46.20
2018-01-05T11:09:54.006Z,45.30
2018-01-05T11:12:21.601Z,45.80
2018-01-05T11:14:49.413Z,45.80
2018-01-05T11:17:17.174Z,46.00
2018-01-05T11:19:44.895Z,46.30
2018-01-05T11:22:12.427Z,47.40
2018-01-05T11:24:40.865Z,47.60
2018-01-05T11:27:08.412Z,47.60
2018-01-05T11:29:35.960Z,49.00
2018-01-05T11:32:03.920Z,50.10
2018-01-05T11:34:31.477Z,49.50
2018-01-05T11:36:59.006Z,49.90
2018-01-05T11:39:27.405Z,50.00
2018-01-05T11:41:56.254Z,50.00
2018-01-05T11:44:25.771Z,50.70
2018-01-05T11:46:54.772Z,51.20
2018-01-05T11:49:22.319Z,51.20
2018-01-05T11:51:49.877Z,50.40
2018-01-05T11:54:17.416Z,51.10
2018-01-05T11:56:45.187Z,50.40
2018-01-05T11:59:12.710Z,50.80
2018-01-05T12:01:42.435Z,51.20
2018-01-05T12:04:10.259Z,52.10
2018-01-05T12:06:37.815Z,52.40
2018-01-05T12:09:06.283Z,52.80
2018-01-05T12:11:33.842Z,52.90
2018-01-05T12:14:01.734Z,54.10
2018-01-05T12:16:29.646Z,55.70
2018-01-05T12:18:57.243Z,55.70
2018-01-05T12:21:26.497Z,57.40
2018-01-05T12:23:54.049Z,57.40
2018-01-05T12:26:21.812Z,57.90
2018-01-05T12:28:49.658Z,59.00
2018-01-05T12:31:17.251Z,59.70
2018-01-05T12:33:44.811Z,60.40
2018-01-05T12:36:12.389Z,61.50
2018-01-05T12:38:40.917Z,61.40
2018-01-05T12:41:08.566Z,61.90
2018-01-05T12:43:36.227Z,62.80
2018-01-05T12:46:04.006Z,63.80
2018-01-05T12:48:31.544Z,64.30
2018-01-05T12:50:59.118Z,65.50
2018-01-05T12:53:27.681Z,67.50
2018-01-05T12:55:55.367Z,67.80
2018-01-05T12:58:23.028Z,68.70
2018-01-05T13:00:50.617Z,68.30
2018-01-05T13:03:18.146Z,69.10
2018-01-05T13:05:45.963Z,70.00
2018-01-05T13:08:14.571Z,70.50
2018-01-05T13:10:42.099Z,70.20
2018-01-05T13:13:09.655Z,70.00
2018-01-05T13:15:37.207Z,70.30
2018-01-05T13:18:04.772Z,70.10
2018-01-05T13:20:32.394Z,70.20
2018-01-05T13:22:59.978Z,70.70
2018-01-05T13:25:27.506Z,69.80
2018-01-05T13:27:56.098Z,69.70
2018-01-05T13:30:23.659Z,69.30
2018-01-05T13:32:51.192Z,71.00
2018-01-05T13:35:18.742Z,70.90
2018-01-05T13:37:46.264Z,70.10
2018-01-05T13:40:14.797Z,70.00
2018-01-05T13:42:42.471Z,69.90
2018-01-05T13:45:10.083Z,70.30
2018-01-05T13:47:37.611Z,69.60
2018-01-05T13:50:06.094Z,70.20
2018-01-05T13:52:33.617Z,69.50
2018-01-05T13:55:01.191Z,69.50
2018-01-05T13:57:30.081Z,69.10
2018-01-05T13:59:57.756Z,68.90
2018-01-05T14:02:25.339Z,69.40
2018-01-05T14:04:53.984Z,68.00
2018-01-05T14:07:21.666Z,67.60
2018-01-05T14:09:50.181Z,68.80
2018-01-05T14:12:18.658Z,68.90
2018-01-05T14:14:48.116Z,69.10
2018-01-05T14:17:15.857Z,68.90
2018-01-05T14:19:43.434Z,70.20
2018-01-05T14:22:11.931Z,68.90
2018-01-05T14:24:39.491Z,69.40
2018-01-05T14:27:07.036Z,70.10
2018-01-05T14:29:34.596Z,70.90
2018-01-05T14:32:02.128Z,71.80
2018-01-05T14:34:29.699Z,70.40
2018-01-05T14:36:57.246Z,69.80
2018-01-05T14:39:25.546Z,70.20
2018-01-05T14:41:53.107Z,70.20
2018-01-05T14:44:20.639Z,70.70
2018-01-05T14:46:48.190Z,69.80
2018-01-05T14:49:15.721Z,69.20
2018-01-05T14:51:43.270Z,68.80
2018-01-05T14:54:10.798Z,69.00
2018-01-05T14:56:38.351Z,69.50
2018-01-05T14:59:05.887Z,70.20
2018-01-05T15:01:36.366Z,69.90
2018-01-05T15:04:03.896Z,69.80
2018-01-05T15:06:31.433Z,69.00
2018-01-05T15:08:59.759Z,71.00
2018-01-05T15:11:27.285Z,70.90
2018-01-05T15:13:54.942Z,71.30
2018-01-05T15:16:25.832Z,71.60
2018-01-05T15:18:53.383Z,73.10
2018-01-05T15:21:20.921Z,76.80
2018-01-05T15:23:48.489Z,77.70
2018-01-05T15:26:16.015Z,79.40
2018-01-05T15:28:43.581Z,78.50
2018-01-05T15:31:11.119Z,80.50
2018-01-05T15:33:39.406Z,82.70
2018-01-05T15:36:06.974Z,82.70
2018-01-05T15:38:35.481Z,83.40
2018-01-05T15:41:03.050Z,81.40
2018-01-05T15:43:30.571Z,82.90
2018-01-05T15:45:58.130Z,84.40
2018-01-05T15:48:26.639Z,85.10
2018-01-05T15:50:54.200Z,84.70
2018-01-05T15:53:21.725Z,85.70
2018-01-05T15:55:49.255Z,87.40
2018-01-05T15:58:16.807Z,85.20
2018-01-05T16:00:44.339Z,85.70
2018-01-05T16:03:11.895Z,86.20
2018-01-05T16:05:39.414Z,86.90
2018-01-05T16:08:06.967Z,87.10
2018-01-05T16:10:35.259Z,85.80
2018-01-05T16:13:02.809Z,85.80
2018-01-05T16:15:31.278Z,85.30
2018-01-05T16:17:59.568Z,85.90
2018-01-05T16:20:27.116Z,85.90
2018-01-05T16:22:55.446Z,88.20
2018-01-05T16:25:23.001Z,88.20
2018-01-05T16:27:50.535Z,88.10
2018-01-05T16:30:18.096Z,89.10
2018-01-05T16:32:45.633Z,88.60
2018-01-05T16:35:14.926Z,89.00
2018-01-05T16:37:42.455Z,89.00
2018-01-05T16:40:09.996Z,89.80
2018-01-05T16:42:37.555Z,90.10
2018-01-05T16:45:05.932Z,90.00
2018-01-05T16:47:33.481Z,90.40
2018-01-05T16:50:01.011Z,89.30
2018-01-05T16:52:28.560Z,89.50
2018-01-05T16:54:56.845Z,89.30
2018-01-05T16:57:24.414Z,89.30
2018-01-05T16:59:51.949Z,88.80
2018-01-05T17:02:20.773Z,89.60
2018-01-05T17:04:48.304Z,87.30
2018-01-05T17:07:16.605Z,86.70
2018-01-05T17:09:44.150Z,86.80
2018-01-05T17:12:11.666Z,87.60
2018-01-05T17:14:39.223Z,87.90
2018-01-05T17:17:07.872Z,86.10
2018-01-05T17:19:35.471Z,86.10
2018-01-05T17:22:03.003Z,86.20
2018-01-05T17:24:30.547Z,85.60
2018-01-05T17:26:58.135Z,85.50
2018-01-05T17:29:25.700Z,86.60
2018-01-05T17:31:54.020Z,87.30
2018-01-05T17:34:21.586Z,87.30
2018-01-05T17:36:49.604Z,86.20
2018-01-05T17:39:17.123Z,86.40
2018-01-05T17:41:44.681Z,84.90
2018-01-05T17:44:12.285Z,82.80
2018-01-05T17:46:39.861Z,82.10
2018-01-05T17:49:08.157Z,82.80
2018-01-05T17:51:35.724Z,82.80
2018-01-05T17:54:03.252Z,82.60
2018-01-05T17:56:31.591Z,81.70
2018-01-05T17:59:01.110Z,81.60
2018-01-05T18:01:28.674Z,81.30
2018-01-05T18:03:57.004Z,83.60
2018-01-05T18:06:24.527Z,83.50
2018-01-05T18:08:52.083Z,83.40
2018-01-05T18:11:20.562Z,83.50
2018-01-05T18:13:48.119Z,84.40
2018-01-05T18:16:17.856Z,84.90
2018-01-05T18:18:45.456Z,85.70
2018-01-05T18:21:14.093Z,84.30
2018-01-05T18:23:41.646Z,86.10
2018-01-05T18:26:09.196Z,85.80
2018-01-05T18:28:36.720Z,84.40
2018-01-05T18:31:04.288Z,83.50
2018-01-05T18:33:31.820Z,86.10
2018-01-05T18:35:59.373Z,84.30
2018-01-05T18:38:26.898Z,83.90
2018-01-05T18:40:54.459Z,85.10
2018-01-05T18:43:21.999Z,84.60
2018-01-05T18:45:49.559Z,84.10
2018-01-05T18:48:17.090Z,84.50
2018-01-05T18:50:46.592Z,84.40
2018-01-05T18:53:14.112Z,84.40
2018-01-05T18:55:41.659Z,85.50
2018-01-05T18:58:09.971Z,85.70
2018-01-05T19:00:37.499Z,85.70
2018-01-05T19:03:06.117Z,87.20
2018-01-05T19:05:33.657Z,86.10
2018-01-05T19:08:01.231Z,87.10
2018-01-05T19:10:28.767Z,90.40
2018-01-05T19:12:57.087Z,88.60
2018-01-05T19:15:24.628Z,88.60
2018-01-05T19:17:52.187Z,87.20
2018-01-05T19:20:19.714Z,88.40
2018-01-05T19:22:47.303Z,88.10
2018-01-05T19:25:15.852Z,85.90
2018-01-05T19:27:44.157Z,86.50
2018-01-05T19:30:11.727Z,86.50
2018-01-05T19:32:39.251Z,86.70
2018-01-05T19:35:06.827Z,85.20
2018-01-05T19:37:34.383Z,87.90
2018-01-05T19:40:01.898Z,88.60
2018-01-05T19:42:31.387Z,90.60
2018-01-05T19:44:58.903Z,91.70
2018-01-05T19:47:26.447Z,91.70
2018-01-05T19:49:53.967Z,92.00
2018-01-05T19:52:21.562Z,92.20
2018-01-05T19:54:50.047Z,92.40
2018-01-05T19:57:20.308Z,93.60
2018-01-05T19:59:47.828Z,93.60
2018-01-05T20:02:16.127Z,93.10
2018-01-05T20:04:43.672Z,93.10
2018-01-05T20:07:11.186Z,92.60
2018-01-05T20:09:38.728Z,92.40
2018-01-05T20:12:07.197Z,92.50
2018-01-05T20:14:34.746Z,92.80
2018-01-05T20:17:02.270Z,92.70
2018-01-05T20:19:31.551Z,92.50
2018-01-05T20:21:59.083Z,92.50
2018-01-05T20:24:26.606Z,92.20
2018-01-05T20:26:54.151Z,92.20
2018-01-05T20:29:21.676Z,92.30
2018-01-05T20:31:49.230Z,92.90
2018-01-05T20:34:16.747Z,93.40
2018-01-05T20:36:44.320Z,92.90
2018-01-05T20:39:11.842Z,92.30
2018-01-05T20:41:39.395Z,92.20
2018-01-05T20:44:07.679Z,92.80
2018-01-05T20:46:35.262Z,92.80
2018-01-05T20:49:02.786Z,92.50
2018-01-05T20:51:32.987Z,92.10
2018-01-05T20:54:00.583Z,91.90
2018-01-05T20:56:28.249Z,92.00
2018-01-05T20:58:55.889Z,92.10
2018-01-05T21:01:23.422Z,91.90
2018-01-05T21:03:50.968Z,91.70
2018-01-05T21:06:18.495Z,91.50
2018-01-05T21:08:46.050Z,91.70
2018-01-05T21:11:13.571Z,91.70
2018-01-05T21:13:41.100Z,91.40
2018-01-05T21:16:08.659Z,92.20
2018-01-05T21:18:37.151Z,92.70
2018-01-05T21:21:04.715Z,92.80
2018-01-05T21:23:32.247Z,92.60
2018-01-05T21:25:59.803Z,92.10
2018-01-05T21:28:27.331Z,92.20
2018-01-05T21:30:55.639Z,91.80
2018-01-05T21:33:24.122Z,91.80
2018-01-05T21:35:51.647Z,91.50
2018-01-05T21:38:19.188Z,91.40
2018-01-05T21:40:46.709Z,91.70
2018-01-05T21:43:14.256Z,91.70
2018-01-05T21:45:42.752Z,91.60
2018-01-05T21:48:10.290Z,91.30
2018-01-05T21:50:37.829Z,91.20
2018-01-05T21:53:05.379Z,92.10
2018-01-05T21:55:33.666Z,91.40
2018-01-05T21:58:01.190Z,91.40
2018-01-05T22:00:28.743Z,91.30
2018-01-05T22:02:56.264Z,91.70
2018-01-05T22:05:23.829Z,91.90
2018-01-05T22:07:51.361Z,91.70
2018-01-05T22:10:18.984Z,91.70
2018-01-05T22:12:46.674Z,91.90
2018-01-05T22:15:14.357Z,92.00
2018-01-05T22:17:42.019Z,91.60
2018-01-05T22:20:09.572Z,91.60
2018-01-05T22:22:37.084Z,91.20
2018-01-05T22:25:04.600Z,91.00
2018-01-05T22:27:32.155Z,90.90
2018-01-05T22:29:59.682Z,91.30
2018-01-05T22:32:27.236Z,90.80
2018-01-05T22:34:55.566Z,90.50
2018-01-05T22:37:25.087Z,90.50
2018-01-05T22:39:52.626Z,90.70
2018-01-05T22:42:20.159Z,90.60
2018-01-05T22:44:47.710Z,90.40
2018-01-05T22:47:16.255Z,90.60
2018-01-05T22:49:45.783Z,90.30
2018-01-05T22:52:14.079Z,90.60
2018-01-05T22:54:41.620Z,90.60
2018-01-05T22:57:09.913Z,90.70
2018-01-05T22:59:39.472Z,90.70
2018-01-05T23:02:06.991Z,90.30
2018-01-05T23:04:34.538Z,90.10
2018-01-05T23:07:02.069Z,89.50
2018-01-05T23:09:30.354Z,90.10
2018-01-05T23:11:58.671Z,90.10
2018-01-05T23:14:26.194Z,90.10
2018-01-05T23:16:54.507Z,90.30
2018-01-05T23:19:22.086Z,90.30
2018-01-05T23:21:49.667Z,90.30
2018-01-05T23:24:17.188Z,90.30
2018-01-05T23:26:45.717Z,90.70
2018-01-05T23:29:13.240Z,90.30
2018-01-05T23:31:40.767Z,90.30
2018-01-05T23:34:08.616Z,90.20
2018-01-05T23:36:36.908Z,90.30
2018-01-05T23:39:04.450Z,90.30
2018-01-05T23:41:32.730Z,90.00
2018-01-05T23:44:00.271Z,90.00
2018-01-05T23:46:28.554Z,89.40
2018-01-05T23:48:58.805Z,89.00
2018-01-05T23:51:26.329Z,89.00
2018-01-05T23:53:53.852Z,89.40
2018-01-05T23:56:23.346Z,90.10
2018-01-05T23:58:50.887Z,90.10
